createdAt,value
2022-09-12T00:00:38.706Z,100.00
2022-09-12T00:03:42.265Z,100.00
2022-09-12T00:06:45.212Z,100.00
2022-09-12T00:09:48.219Z,100.00
2022-09-12T00:12:50.736Z,100.00
2022-09-12T00:15:53.567Z,100.00
2022-09-12T00:18:57.135Z,100.00
2022-09-12T00:22:00.059Z,100.00
2022-09-12T00:25:02.803Z,100.00
2022-09-12T00:28:05.688Z,100.00
2022-09-12T00:31:12.779Z,100.00
2022-09-12T00:34:15.723Z,100.00
2022-09-12T00:37:18.257Z,100.00
2022-09-12T00:40:21.109Z,100.00
2022-09-12T00:43:38.506Z,100.00
2022-09-12T00:46:48.789Z,100.00
2022-09-12T00:50:14.181Z,100.00
2022-09-12T00:53:17.842Z,100.00
2022-09-12T00:56:23.470Z,100.00
2022-09-12T00:59:32.392Z,100.00
2022-09-12T01:02:35.238Z,100.00
2022-09-12T01:05:44.462Z,100.00
2022-09-12T01:08:48.207Z,100.00
2022-09-12T01:11:53.144Z,100.00
2022-09-12T01:14:55.806Z,100.00
2022-09-12T01:18:10.737Z,100.00
2022-09-12T01:21:37.750Z,100.00
2022-09-12T01:25:28.760Z,100.00
2022-09-12T01:29:03.709Z,100.00
2022-09-12T01:32:26.828Z,100.00
2022-09-12T01:35:58.669Z,100.00
2022-09-12T01:39:03.852Z,100.00
2022-09-12T01:42:32.274Z,100.00
2022-09-12T01:45:47.807Z,100.00
2022-09-12T01:49:09.313Z,100.00
2022-09-12T01:52:49.537Z,100.00
2022-09-12T01:55:59.836Z,100.00
2022-09-12T01:59:09.198Z,100.00
2022-09-12T02:02:21.797Z,100.00
2022-09-12T02:05:34.840Z,100.00
2022-09-12T02:08:47.297Z,100.00
2022-09-12T02:11:53.585Z,100.00
2022-09-12T02:15:03.468Z,100.00
2022-09-12T02:18:07.015Z,100.00
2022-09-12T02:21:10.192Z,100.00
2022-09-12T02:24:16.542Z,100.00
2022-09-12T02:27:24.826Z,100.00
2022-09-12T02:30:37.452Z,100.00
2022-09-12T02:34:02.079Z,100.00
2022-09-12T02:37:39.869Z,100.00
2022-09-12T02:40:43.210Z,100.00
2022-09-12T02:43:47.519Z,100.00
2022-09-12T02:46:57.559Z,100.00
2022-09-12T02:50:00.661Z,100.00
2022-09-12T02:53:05.635Z,100.00
2022-09-12T02:56:14.365Z,100.00
2022-09-12T02:59:19.906Z,100.00
2022-09-12T03:02:44.023Z,100.00
2022-09-12T03:05:59.838Z,100.00
2022-09-12T03:09:15.681Z,100.00
2022-09-12T03:12:39.042Z,100.00
2022-09-12T03:16:05.225Z,100.00
2022-09-12T03:19:24.525Z,100.00
2022-09-12T03:22:51.146Z,100.00
2022-09-12T03:26:01.431Z,100.00
2022-09-12T03:29:07.077Z,100.00
2022-09-12T03:32:09.640Z,100.00
2022-09-12T03:35:14.725Z,100.00
2022-09-12T03:38:18.165Z,100.00
2022-09-12T03:41:21.645Z,100.00
2022-09-12T03:44:24.746Z,100.00
2022-09-12T03:47:27.643Z,100.00
2022-09-12T03:50:31.065Z,100.00
2022-09-12T03:53:34.268Z,100.00
2022-09-12T03:56:37.164Z,100.00
2022-09-12T03:59:40.049Z,100.00
2022-09-12T04:02:42.659Z,100.00
2022-09-12T04:05:46.611Z,100.00
2022-09-12T04:08:51.548Z,100.00
2022-09-12T04:11:54.374Z,100.00
2022-09-12T04:14:56.887Z,100.00
2022-09-12T04:18:05.081Z,100.00
2022-09-12T04:21:14.362Z,100.00
2022-09-12T04:24:17.349Z,100.00
2022-09-12T04:27:19.948Z,100.00
2022-09-12T04:30:22.938Z,100.00
2022-09-12T04:33:26.545Z,100.00
2022-09-12T04:36:29.716Z,100.00
2022-09-12T04:39:32.638Z,100.00
2022-09-12T04:42:35.477Z,100.00
2022-09-12T04:45:38.051Z,100.00
2022-09-12T04:48:41.627Z,100.00
2022-09-12T04:51:44.439Z,100.00
2022-09-12T04:54:47.301Z,100.00
2022-09-12T04:57:49.854Z,100.00
2022-09-12T05:00:52.772Z,100.00
2022-09-12T05:03:56.491Z,100.00
2022-09-12T05:06:59.983Z,100.00
2022-09-12T05:10:04.748Z,100.00
2022-09-12T05:13:07.614Z,100.00
2022-09-12T05:16:12.332Z,100.00
2022-09-12T05:19:15.330Z,100.00
2022-09-12T05:22:17.917Z,100.00
2022-09-12T05:25:20.802Z,92.91
2022-09-12T05:28:24.722Z,88.28
2022-09-12T05:31:28.974Z,83.73
2022-09-12T05:34:31.582Z,81.36
2022-09-12T05:37:34.562Z,80.86
2022-09-12T05:40:37.221Z,78.18
2022-09-12T05:43:42.519Z,77.87
2022-09-12T05:46:48.668Z,77.93
2022-09-12T05:49:52.524Z,75.39
2022-09-12T05:52:55.165Z,73.91
2022-09-12T05:56:13.192Z,74.26
2022-09-12T05:59:17.433Z,71.40
2022-09-12T06:02:20.665Z,69.66
2022-09-12T06:05:23.968Z,69.45
2022-09-12T06:08:26.791Z,67.54
2022-09-12T06:11:36.180Z,66.71
2022-09-12T06:14:38.943Z,65.37
2022-09-12T06:17:42.021Z,64.10
2022-09-12T06:20:44.753Z,63.70
2022-09-12T06:23:48.282Z,65.84
2022-09-12T06:26:52.903Z,63.79
2022-09-12T06:29:55.853Z,62.59
2022-09-12T06:32:58.492Z,61.99
2022-09-12T06:36:11.514Z,60.19
2022-09-12T06:39:21.134Z,60.22
2022-09-12T06:42:24.009Z,60.26
2022-09-12T06:45:31.559Z,59.99
2022-09-12T06:48:38.339Z,58.49
2022-09-12T06:51:44.586Z,57.82
2022-09-12T06:54:47.831Z,57.48
2022-09-12T06:57:50.648Z,57.35
2022-09-12T07:01:01.990Z,57.16
2022-09-12T07:04:05.531Z,58.09
2022-09-12T07:07:08.411Z,59.33
2022-09-12T07:10:12.456Z,55.56
2022-09-12T07:13:15.353Z,53.17
2022-09-12T07:16:19.854Z,54.28
2022-09-12T07:19:24.306Z,54.88
2022-09-12T07:22:26.910Z,54.00
2022-09-12T07:25:29.856Z,52.96
2022-09-12T07:28:34.326Z,53.88
2022-09-12T07:31:37.330Z,52.28
2022-09-12T07:34:39.973Z,54.92
2022-09-12T07:37:43.038Z,54.33
2022-09-12T07:40:45.860Z,53.25
2022-09-12T07:43:52.196Z,53.63
2022-09-12T07:46:54.956Z,51.43
2022-09-12T07:49:59.128Z,51.47
2022-09-12T07:53:03.212Z,53.41
2022-09-12T07:56:08.190Z,55.56
2022-09-12T07:59:10.840Z,56.08
2022-09-12T08:02:17.742Z,58.23
2022-09-12T08:05:20.956Z,57.19
2022-09-12T08:08:23.817Z,55.41
2022-09-12T08:11:29.362Z,54.45
2022-09-12T08:14:32.054Z,55.08
2022-09-12T08:17:35.013Z,54.22
2022-09-12T08:20:37.641Z,54.03
2022-09-12T08:23:40.938Z,53.19
2022-09-12T08:26:43.616Z,53.24
2022-09-12T08:29:46.550Z,54.60
2022-09-12T08:32:49.370Z,52.74
2022-09-12T08:35:52.368Z,53.23
2022-09-12T08:38:59.977Z,54.61
2022-09-12T08:42:06.045Z,54.58
2022-09-12T08:45:11.903Z,52.04
2022-09-12T08:48:15.036Z,52.44
2022-09-12T08:51:20.593Z,52.20
2022-09-12T08:54:27.477Z,52.14
2022-09-12T08:57:30.184Z,53.43
2022-09-12T09:00:45.324Z,52.95
2022-09-12T09:04:01.989Z,55.01
2022-09-12T09:07:23.490Z,54.37
2022-09-12T09:10:53.554Z,55.61
2022-09-12T09:14:32.028Z,55.45
2022-09-12T09:17:45.815Z,53.75
2022-09-12T09:20:57.630Z,53.08
2022-09-12T09:24:07.862Z,53.80
2022-09-12T09:27:39.901Z,52.94
2022-09-12T09:30:45.115Z,52.00
2022-09-12T09:33:51.123Z,52.68
2022-09-12T09:37:09.053Z,55.02
2022-09-12T09:40:20.449Z,54.32
2022-09-12T09:43:27.545Z,54.42
2022-09-12T09:46:30.635Z,52.84
2022-09-12T09:49:35.092Z,53.04
2022-09-12T09:52:39.663Z,52.20
2022-09-12T09:55:43.969Z,54.05
2022-09-12T09:58:46.985Z,52.88
2022-09-12T10:01:54.652Z,51.08
2022-09-12T10:04:59.795Z,53.61
2022-09-12T10:08:10.457Z,53.93
2022-09-12T10:11:16.516Z,53.76
2022-09-12T10:14:39.683Z,52.23
2022-09-12T10:17:44.527Z,53.39
2022-09-12T10:20:47.096Z,53.79
2022-09-12T10:24:00.073Z,53.91
2022-09-12T10:27:11.870Z,53.72
2022-09-12T10:30:17.939Z,54.75
2022-09-12T10:33:20.993Z,54.99
2022-09-12T10:36:24.822Z,55.86
2022-09-12T10:39:27.851Z,54.23
2022-09-12T10:42:53.444Z,55.40
2022-09-12T10:46:19.783Z,54.62
2022-09-12T10:49:29.890Z,53.34
2022-09-12T10:52:32.494Z,52.05
2022-09-12T10:55:35.990Z,51.40
2022-09-12T10:59:19.892Z,51.08
2022-09-12T11:02:26.109Z,48.64
2022-09-12T11:05:40.827Z,48.15
2022-09-12T11:08:53.524Z,46.91
2022-09-12T11:12:24.984Z,47.87
2022-09-12T11:15:39.848Z,50.08
2022-09-12T11:19:04.226Z,52.86
2022-09-12T11:22:45.006Z,54.43
2022-09-12T11:26:21.172Z,55.72
2022-09-12T11:29:41.286Z,54.54
2022-09-12T11:32:53.671Z,53.11
2022-09-12T11:35:58.003Z,52.35
2022-09-12T11:39:10.689Z,51.25
2022-09-12T11:42:20.247Z,50.90
2022-09-12T11:45:29.386Z,50.43
2022-09-12T11:48:45.140Z,50.24
2022-09-12T11:52:01.991Z,50.37
2022-09-12T11:55:17.866Z,50.27
2022-09-12T11:58:24.925Z,49.21
2022-09-12T12:01:42.917Z,48.09
2022-09-12T12:05:20.767Z,48.24
2022-09-12T12:08:26.680Z,49.26
2022-09-12T12:11:34.263Z,49.18
2022-09-12T12:14:46.362Z,48.62
2022-09-12T12:18:04.606Z,50.62
2022-09-12T12:21:32.198Z,52.18
2022-09-12T12:24:53.216Z,52.27
2022-09-12T12:28:01.449Z,52.08
2022-09-12T12:31:05.747Z,50.20
2022-09-12T12:34:41.246Z,51.17
2022-09-12T12:37:49.179Z,51.34
2022-09-12T12:40:51.977Z,52.52
2022-09-12T12:43:56.524Z,53.95
2022-09-12T12:47:16.979Z,54.81
2022-09-12T12:50:19.939Z,54.13
2022-09-12T12:53:26.134Z,54.65
2022-09-12T12:56:38.795Z,54.49
2022-09-12T12:59:51.856Z,55.06
2022-09-12T13:03:01.217Z,55.46
2022-09-12T13:06:09.038Z,55.97
2022-09-12T13:09:30.969Z,57.23
2022-09-12T13:12:44.395Z,56.18
2022-09-12T13:15:51.331Z,56.10
2022-09-12T13:18:54.453Z,55.39
2022-09-12T13:22:01.065Z,54.89
2022-09-12T13:25:19.322Z,55.03
2022-09-12T13:28:24.627Z,55.78
2022-09-12T13:31:31.126Z,53.96
2022-09-12T13:34:37.245Z,52.92
2022-09-12T13:37:58.569Z,51.61
2022-09-12T13:41:30.991Z,50.00
2022-09-12T13:44:45.751Z,50.07
2022-09-12T13:47:58.759Z,49.45
2022-09-12T13:51:03.986Z,48.57
2022-09-12T13:54:07.359Z,48.67
2022-09-12T13:57:38.169Z,49.05
2022-09-12T14:00:41.181Z,49.85
2022-09-12T14:04:08.592Z,50.60
2022-09-12T14:07:17.349Z,51.66
2022-09-12T14:10:42.622Z,52.02
2022-09-12T14:13:46.143Z,51.83
2022-09-12T14:16:50.258Z,51.89
2022-09-12T14:19:53.019Z,51.93
2022-09-12T14:22:56.079Z,51.54
2022-09-12T14:26:02.602Z,51.01
2022-09-12T14:29:07.392Z,50.18
2022-09-12T14:32:21.411Z,50.58
2022-09-12T14:35:24.329Z,50.15
2022-09-12T14:38:36.155Z,50.48
2022-09-12T14:41:41.381Z,50.98
2022-09-12T14:45:02.783Z,52.36
2022-09-12T14:48:05.858Z,53.42
2022-09-12T14:51:18.511Z,54.95
2022-09-12T14:54:27.471Z,56.01
2022-09-12T14:57:39.522Z,56.01
2022-09-12T15:01:22.978Z,55.84
2022-09-12T15:04:42.466Z,54.96
2022-09-12T15:07:56.359Z,54.26
2022-09-12T15:11:00.008Z,53.77
2022-09-12T15:14:15.744Z,52.66
2022-09-12T15:17:18.379Z,52.18
2022-09-12T15:20:21.414Z,52.35
2022-09-12T15:23:46.941Z,52.97
2022-09-12T15:26:51.001Z,53.24
2022-09-12T15:29:53.905Z,53.78
2022-09-12T15:32:56.906Z,54.06
2022-09-12T15:35:59.516Z,54.51
2022-09-12T15:39:02.460Z,54.05
2022-09-12T15:42:05.121Z,53.78
2022-09-12T15:45:29.257Z,53.26
2022-09-12T15:48:31.875Z,53.77
2022-09-12T15:51:34.851Z,52.59
2022-09-12T15:54:37.482Z,51.90
2022-09-12T15:57:40.493Z,51.96
2022-09-12T16:00:43.108Z,51.43
2022-09-12T16:03:47.673Z,51.61
2022-09-12T16:06:51.580Z,51.80
2022-09-12T16:09:54.469Z,52.06
2022-09-12T16:12:58.191Z,52.19
2022-09-12T16:16:01.366Z,52.44
2022-09-12T16:19:04.283Z,52.88
2022-09-12T16:22:07.195Z,53.03
2022-09-12T16:25:10.458Z,53.04
2022-09-12T16:28:13.517Z,55.03
2022-09-12T16:31:16.246Z,57.29
2022-09-12T16:34:19.225Z,58.75
2022-09-12T16:37:21.826Z,59.69
2022-09-12T16:40:25.001Z,59.89
2022-09-12T16:43:27.670Z,60.48
2022-09-12T16:46:30.580Z,61.04
2022-09-12T16:49:33.610Z,61.50
2022-09-12T16:52:36.637Z,62.17
2022-09-12T16:55:39.401Z,62.64
2022-09-12T16:58:42.745Z,63.52
2022-09-12T17:01:45.530Z,64.00
2022-09-12T17:04:48.945Z,64.91
2022-09-12T17:07:52.062Z,65.58
2022-09-12T17:11:06.641Z,66.44
2022-09-12T17:14:10.705Z,67.46
2022-09-12T17:17:13.770Z,68.52
2022-09-12T17:20:16.832Z,69.44
2022-09-12T17:23:19.735Z,70.69
2022-09-12T17:26:22.493Z,72.15
2022-09-12T17:29:25.521Z,73.04
2022-09-12T17:32:28.225Z,74.16
2022-09-12T17:35:35.079Z,74.94
2022-09-12T17:38:39.783Z,75.92
2022-09-12T17:41:43.124Z,76.94
2022-09-12T17:44:45.830Z,77.87
2022-09-12T17:47:49.154Z,78.65
2022-09-12T17:50:52.114Z,79.28
2022-09-12T17:54:10.427Z,79.98
2022-09-12T17:57:13.085Z,80.47
2022-09-12T18:00:16.339Z,80.90
2022-09-12T18:03:22.955Z,81.43
2022-09-12T18:06:25.707Z,82.20
2022-09-12T18:09:29.213Z,82.75
2022-09-12T18:12:32.445Z,83.82
2022-09-12T18:15:35.662Z,84.27
2022-09-12T18:18:38.944Z,84.85
2022-09-12T18:21:41.937Z,85.70
2022-09-12T18:24:44.545Z,86.14
2022-09-12T18:27:47.570Z,86.63
2022-09-12T18:30:50.152Z,87.32
2022-09-12T18:33:53.079Z,88.02
2022-09-12T18:36:55.759Z,88.78
2022-09-12T18:39:58.663Z,89.26
2022-09-12T18:43:01.220Z,89.55
2022-09-12T18:46:10.548Z,89.93
2022-09-12T18:49:13.235Z,90.33
2022-09-12T18:52:18.947Z,90.97
2022-09-12T18:55:23.634Z,91.66
2022-09-12T18:58:26.612Z,91.86
2022-09-12T19:01:37.420Z,92.11
2022-09-12T19:04:40.520Z,92.60
2022-09-12T19:07:43.098Z,93.31
2022-09-12T19:10:53.858Z,93.89
2022-09-12T19:13:56.750Z,94.65
2022-09-12T19:16:59.742Z,95.32
2022-09-12T19:20:02.789Z,95.90
2022-09-12T19:23:05.926Z,96.58
2022-09-12T19:26:11.744Z,97.37
2022-09-12T19:29:16.641Z,98.00
2022-09-12T19:32:19.367Z,98.64
2022-09-12T19:35:22.245Z,99.29
2022-09-12T19:38:25.055Z,99.68
2022-09-12T19:41:28.141Z,99.46
2022-09-12T19:44:30.700Z,99.50
2022-09-12T19:47:33.713Z,99.69
2022-09-12T19:50:37.165Z,100.00
2022-09-12T19:53:40.963Z,100.00
2022-09-12T19:56:43.522Z,100.00
2022-09-12T19:59:46.477Z,100.00
2022-09-12T20:02:51.310Z,100.00
2022-09-12T20:05:54.145Z,100.00
2022-09-12T20:08:56.870Z,100.00
2022-09-12T20:11:59.790Z,100.00
2022-09-12T20:15:02.531Z,100.00
2022-09-12T20:18:05.527Z,100.00
2022-09-12T20:21:16.446Z,100.00
2022-09-12T20:24:19.753Z,100.00
2022-09-12T20:27:22.270Z,100.00
2022-09-12T20:30:25.274Z,100.00
2022-09-12T20:33:27.992Z,100.00
2022-09-12T20:36:31.029Z,100.00
2022-09-12T20:39:33.999Z,100.00
2022-09-12T20:42:37.149Z,100.00
2022-09-12T20:45:42.479Z,100.00
2022-09-12T20:48:46.927Z,100.00
2022-09-12T20:51:50.110Z,100.00
2022-09-12T20:54:53.079Z,100.00
2022-09-12T20:57:55.710Z,100.00
2022-09-12T21:00:59.394Z,100.00
2022-09-12T21:04:02.210Z,100.00
2022-09-12T21:07:05.172Z,100.00
2022-09-12T21:10:08.080Z,100.00
2022-09-12T21:13:12.192Z,100.00
2022-09-12T21:16:17.553Z,100.00
2022-09-12T21:19:20.538Z,100.00
2022-09-12T21:22:23.158Z,100.00
2022-09-12T21:25:25.995Z,100.00
2022-09-12T21:28:29.290Z,100.00
2022-09-12T21:31:32.211Z,100.00
2022-09-12T21:34:34.817Z,100.00
2022-09-12T21:37:37.678Z,100.00
2022-09-12T21:40:40.283Z,100.00
2022-09-12T21:43:44.014Z,100.00
2022-09-12T21:46:46.584Z,100.00
2022-09-12T21:49:49.456Z,100.00
2022-09-12T21:52:52.122Z,100.00
2022-09-12T21:55:55.026Z,100.00
2022-09-12T21:58:57.602Z,100.00
2022-09-12T22:02:00.467Z,100.00
2022-09-12T22:05:04.275Z,100.00
2022-09-12T22:08:08.045Z,100.00
2022-09-12T22:11:10.897Z,100.00
2022-09-12T22:14:13.524Z,100.00
2022-09-12T22:17:16.325Z,100.00
2022-09-12T22:20:19.529Z,100.00
2022-09-12T22:23:40.781Z,100.00
2022-09-12T22:26:45.144Z,100.00
2022-09-12T22:29:50.906Z,100.00
2022-09-12T22:32:53.538Z,100.00
2022-09-12T22:35:56.381Z,100.00
2022-09-12T22:39:00.331Z,100.00
2022-09-12T22:42:03.896Z,100.00
2022-09-12T22:45:07.670Z,100.00
2022-09-12T22:48:10.539Z,100.00
2022-09-12T22:51:13.833Z,100.00
2022-09-12T22:54:16.685Z,100.00
2022-09-12T22:57:19.486Z,100.00
2022-09-12T23:00:23.615Z,100.00
2022-09-12T23:03:26.221Z,100.00
2022-09-12T23:06:29.516Z,100.00
2022-09-12T23:09:35.264Z,100.00
2022-09-12T23:12:38.439Z,100.00
2022-09-12T23:15:41.182Z,100.00
2022-09-12T23:18:44.880Z,100.00
2022-09-12T23:21:47.457Z,100.00
2022-09-12T23:24:50.345Z,100.00
2022-09-12T23:27:53.530Z,100.00
2022-09-12T23:30:57.173Z,100.00
2022-09-12T23:34:02.537Z,100.00
2022-09-12T23:37:05.363Z,100.00
2022-09-12T23:40:09.049Z,100.00
2022-09-12T23:43:11.930Z,100.00
2022-09-12T23:46:16.698Z,100.00
2022-09-12T23:49:19.880Z,100.00
2022-09-12T23:52:22.482Z,100.00
2022-09-12T23:55:25.379Z,100.00
2022-09-12T23:58:29.607Z,100.00
